createdAt,value
2023-05-09T00:01:31.809Z,101586.41
2023-05-09T00:03:59.805Z,101592.53
2023-05-09T00:06:27.997Z,101598.69
2023-05-09T00:08:55.942Z,101580.53
2023-05-09T00:11:23.238Z,101604.53
2023-05-09T00:13:51.234Z,101604.03
2023-05-09T00:16:18.922Z,101551.13
2023-05-09T00:18:47.594Z,101602.81
2023-05-09T00:21:14.646Z,101599.25
2023-05-09T00:23:41.717Z,101556.16
2023-05-09T00:26:10.454Z,101598.28
2023-05-09T00:28:39.140Z,101567.06
2023-05-09T00:31:06.204Z,101585.97
2023-05-09T00:33:33.215Z,101608.94
2023-05-09T00:36:00.377Z,101597.38
2023-05-09T00:38:27.383Z,101607.06
2023-05-09T00:40:54.397Z,101603.50
2023-05-09T00:43:21.733Z,101605.19
2023-05-09T00:45:49.571Z,101608.56
2023-05-09T00:48:16.952Z,101606.75
2023-05-09T00:50:44.228Z,101605.88
2023-05-09T00:53:11.959Z,101603.78
2023-05-09T00:55:39.137Z,101606.25
2023-05-09T00:58:06.375Z,101613.47
2023-05-09T01:00:33.768Z,101606.47
2023-05-09T01:03:01.573Z,101607.25
2023-05-09T01:05:40.778Z,101600.00
2023-05-09T01:08:18.152Z,101603.56
2023-05-09T01:11:09.650Z,101611.72
2023-05-09T01:13:36.631Z,101621.47
2023-05-09T01:16:16.786Z,101593.47
2023-05-09T01:19:00.371Z,101607.31
2023-05-09T01:21:30.634Z,101610.59
2023-05-09T01:24:16.410Z,101613.34
2023-05-09T01:27:07.534Z,101616.19
2023-05-09T01:29:39.511Z,101620.50
2023-05-09T01:32:10.913Z,101611.66
2023-05-09T01:34:40.131Z,101598.28
2023-05-09T01:37:07.511Z,101605.63
2023-05-09T01:39:38.677Z,101610.66
2023-05-09T01:42:08.537Z,101607.44
2023-05-09T01:44:39.255Z,101613.72
2023-05-09T01:47:07.920Z,101617.06
2023-05-09T01:49:37.902Z,101615.19
2023-05-09T01:52:09.131Z,101605.47
2023-05-09T01:54:38.850Z,101618.75
2023-05-09T01:57:08.445Z,101606.34
2023-05-09T01:59:36.558Z,101619.75
2023-05-09T02:02:04.732Z,101607.38
2023-05-09T02:04:34.022Z,101612.91
2023-05-09T02:07:02.756Z,101612.72
2023-05-09T02:09:29.899Z,101622.91
2023-05-09T02:11:56.919Z,101624.16
2023-05-09T02:14:24.157Z,101615.91
2023-05-09T02:16:51.604Z,101564.47
2023-05-09T02:19:18.822Z,101609.53
2023-05-09T02:21:46.015Z,101620.44
2023-05-09T02:24:13.093Z,101618.84
2023-05-09T02:26:41.002Z,101613.94
2023-05-09T02:29:08.800Z,101614.72
2023-05-09T02:31:37.124Z,101609.00
2023-05-09T02:34:05.614Z,101612.59
2023-05-09T02:36:35.365Z,101621.47
2023-05-09T02:39:02.843Z,101625.72
2023-05-09T02:41:30.924Z,101610.09
2023-05-09T02:43:57.932Z,101631.19
2023-05-09T02:46:24.998Z,101622.28
2023-05-09T02:48:52.717Z,101631.41
2023-05-09T02:51:20.102Z,101604.97
2023-05-09T02:53:47.160Z,101629.84
2023-05-09T02:56:14.244Z,101628.69
2023-05-09T02:58:41.285Z,101634.44
2023-05-09T03:01:08.394Z,101627.84
2023-05-09T03:03:35.626Z,101631.13
2023-05-09T03:06:04.891Z,101638.69
2023-05-09T03:08:32.022Z,101644.34
2023-05-09T03:10:59.109Z,101631.75
2023-05-09T03:13:26.459Z,101634.84
2023-05-09T03:15:53.612Z,101642.38
2023-05-09T03:18:20.908Z,101644.66
2023-05-09T03:20:47.921Z,101638.34
2023-05-09T03:23:15.193Z,101643.38
2023-05-09T03:25:42.240Z,101621.97
2023-05-09T03:28:09.278Z,101638.63
2023-05-09T03:30:36.835Z,101632.00
2023-05-09T03:33:07.910Z,101640.59
2023-05-09T03:35:34.917Z,101642.09
2023-05-09T03:38:02.679Z,101627.69
2023-05-09T03:40:29.752Z,101644.22
2023-05-09T03:43:05.513Z,101637.25
2023-05-09T03:45:32.827Z,101641.28
2023-05-09T03:48:00.377Z,101633.19
2023-05-09T03:50:27.478Z,101616.13
2023-05-09T03:52:57.523Z,101643.75
2023-05-09T03:55:25.056Z,101643.78
2023-05-09T03:57:52.088Z,101648.16
2023-05-09T04:00:19.705Z,101647.53
2023-05-09T04:02:54.000Z,101639.75
2023-05-09T04:05:33.811Z,101650.75
2023-05-09T04:08:01.615Z,101648.41
2023-05-09T04:10:30.232Z,101655.63
2023-05-09T04:12:57.626Z,101653.47
2023-05-09T04:15:24.810Z,101590.81
2023-05-09T04:17:51.902Z,101652.03
2023-05-09T04:20:18.983Z,101654.56
2023-05-09T04:22:47.035Z,101650.78
2023-05-09T04:25:17.133Z,101651.56
2023-05-09T04:27:45.950Z,101650.56
2023-05-09T04:30:13.339Z,101658.53
2023-05-09T04:32:45.854Z,101654.28
2023-05-09T04:35:14.312Z,101653.75
2023-05-09T04:37:45.583Z,101645.47
2023-05-09T04:40:13.530Z,101659.72
2023-05-09T04:42:47.711Z,101657.69
2023-05-09T04:45:15.793Z,101655.28
2023-05-09T04:47:44.079Z,101658.28
2023-05-09T04:50:11.662Z,101654.88
2023-05-09T04:52:38.710Z,101639.22
2023-05-09T04:55:06.506Z,101648.78
2023-05-09T04:57:38.615Z,101650.50
2023-05-09T05:00:11.676Z,101651.44
2023-05-09T05:02:39.575Z,101654.53
2023-05-09T05:05:12.139Z,101654.59
2023-05-09T05:07:42.381Z,101657.19
2023-05-09T05:10:11.518Z,101652.81
2023-05-09T05:12:41.014Z,101644.47
2023-05-09T05:15:11.571Z,101648.28
2023-05-09T05:17:39.812Z,101662.91
2023-05-09T05:20:10.989Z,101652.75
2023-05-09T05:22:48.045Z,101607.66
2023-05-09T05:25:17.859Z,101659.31
2023-05-09T05:27:57.215Z,101644.75
2023-05-09T05:30:29.942Z,101630.69
2023-05-09T05:32:58.585Z,101651.16
2023-05-09T05:35:28.393Z,101641.94
2023-05-09T05:37:56.375Z,101640.03
2023-05-09T05:40:23.496Z,101634.47
2023-05-09T05:42:52.565Z,101643.03
2023-05-09T05:45:20.246Z,101622.06
2023-05-09T05:47:51.089Z,101621.47
2023-05-09T05:50:18.963Z,101636.94
2023-05-09T05:52:46.167Z,101633.69
2023-05-09T05:55:15.934Z,101612.84
2023-05-09T05:57:43.214Z,101636.88
2023-05-09T06:00:15.059Z,101635.50
2023-05-09T06:02:50.069Z,101617.28
2023-05-09T06:05:28.614Z,101618.81
2023-05-09T06:07:55.610Z,101627.00
2023-05-09T06:10:22.763Z,101630.56
2023-05-09T06:12:49.937Z,101618.00
2023-05-09T06:15:18.041Z,101630.84
2023-05-09T06:17:48.525Z,101625.78
2023-05-09T06:20:15.596Z,101614.78
2023-05-09T06:22:42.657Z,101587.78
2023-05-09T06:25:10.593Z,101613.28
2023-05-09T06:27:38.526Z,101621.84
2023-05-09T06:30:21.423Z,101621.00
2023-05-09T06:32:52.216Z,101613.91
2023-05-09T06:35:19.340Z,101602.94
2023-05-09T06:37:48.433Z,101605.31
2023-05-09T06:40:16.449Z,101568.53
2023-05-09T06:42:43.556Z,101605.19
2023-05-09T06:45:11.634Z,101600.22
2023-05-09T06:47:38.749Z,101526.28
2023-05-09T06:50:06.439Z,101549.97
2023-05-09T06:52:33.499Z,101584.19
2023-05-09T06:55:00.607Z,101593.63
2023-05-09T06:57:27.933Z,101573.03
2023-05-09T06:59:54.989Z,101585.03
2023-05-09T07:02:22.144Z,101552.41
2023-05-09T07:04:49.305Z,101580.66
2023-05-09T07:07:16.455Z,101571.69
2023-05-09T07:09:43.636Z,101577.41
2023-05-09T07:12:10.750Z,101579.72
2023-05-09T07:14:38.346Z,101572.56
2023-05-09T07:17:18.261Z,101578.09
2023-05-09T07:19:49.560Z,101569.41
2023-05-09T07:22:16.553Z,101572.50
2023-05-09T07:24:46.677Z,101573.31
2023-05-09T07:27:14.231Z,101566.91
2023-05-09T07:29:41.323Z,101578.03
2023-05-09T07:32:09.264Z,101555.22
2023-05-09T07:34:36.760Z,101560.25
2023-05-09T07:37:03.952Z,101558.66
2023-05-09T07:39:31.107Z,101564.06
2023-05-09T07:41:58.467Z,101563.25
2023-05-09T07:44:25.896Z,101563.25
2023-05-09T07:46:55.508Z,101558.69
2023-05-09T07:49:22.729Z,101556.97
2023-05-09T07:51:49.823Z,101561.38
2023-05-09T07:54:16.978Z,101535.47
2023-05-09T07:56:44.101Z,101541.47
2023-05-09T07:59:12.420Z,101539.38
2023-05-09T08:01:39.789Z,101546.22
2023-05-09T08:04:09.206Z,101517.09
2023-05-09T08:06:36.815Z,101516.53
2023-05-09T08:09:04.938Z,101530.47
2023-05-09T08:11:36.185Z,101517.88
2023-05-09T08:14:03.568Z,101528.19
2023-05-09T08:16:31.164Z,101497.38
2023-05-09T08:18:58.385Z,101513.22
2023-05-09T08:21:26.666Z,101514.28
2023-05-09T08:23:53.980Z,101510.91
2023-05-09T08:26:22.775Z,101507.56
2023-05-09T08:28:50.013Z,101512.81
2023-05-09T08:31:17.250Z,101496.31
2023-05-09T08:33:44.458Z,101509.84
2023-05-09T08:36:11.703Z,101500.56
2023-05-09T08:38:40.721Z,101506.72
2023-05-09T08:41:07.993Z,101499.53
2023-05-09T08:43:35.839Z,101496.31
2023-05-09T08:46:08.740Z,101488.09
2023-05-09T08:48:39.127Z,101485.03
2023-05-09T08:51:07.211Z,101492.66
2023-05-09T08:53:34.949Z,101483.72
2023-05-09T08:56:04.024Z,101481.09
2023-05-09T08:58:32.096Z,101474.69
2023-05-09T09:01:01.590Z,101474.25
2023-05-09T09:03:28.958Z,101480.22
2023-05-09T09:05:56.743Z,101477.84
2023-05-09T09:08:25.232Z,101476.81
2023-05-09T09:10:52.929Z,101479.38
2023-05-09T09:13:22.076Z,101465.94
2023-05-09T09:15:49.762Z,101448.94
2023-05-09T09:18:22.279Z,101456.97
2023-05-09T09:21:00.039Z,101453.50
2023-05-09T09:23:29.296Z,101458.09
2023-05-09T09:26:01.376Z,101445.66
2023-05-09T09:28:29.057Z,101450.69
2023-05-09T09:30:56.372Z,101452.44
2023-05-09T09:33:25.312Z,101438.38
2023-05-09T09:35:53.854Z,101450.69
2023-05-09T09:38:22.055Z,101455.91
2023-05-09T09:40:52.511Z,101453.16
2023-05-09T09:43:20.005Z,101439.66
2023-05-09T09:45:51.479Z,101448.28
2023-05-09T09:48:18.865Z,101447.31
2023-05-09T09:50:48.485Z,101422.22
2023-05-09T09:53:16.462Z,101449.44
2023-05-09T09:55:52.152Z,101430.97
2023-05-09T09:58:25.141Z,101448.59
2023-05-09T10:01:16.902Z,101442.81
2023-05-09T10:03:48.318Z,101437.63
2023-05-09T10:06:17.068Z,101423.09
2023-05-09T10:08:49.098Z,101428.84
2023-05-09T10:11:16.608Z,101431.84
2023-05-09T10:13:44.722Z,101421.63
2023-05-09T10:16:13.626Z,101418.28
2023-05-09T10:18:43.262Z,101391.47
2023-05-09T10:21:15.343Z,101430.94
2023-05-09T10:23:48.681Z,101405.59
2023-05-09T10:26:23.106Z,101411.94
2023-05-09T10:28:55.840Z,101397.31
2023-05-09T10:31:27.084Z,101411.66
2023-05-09T10:33:56.044Z,101407.25
2023-05-09T10:36:26.528Z,101404.75
2023-05-09T10:38:55.555Z,101402.94
2023-05-09T10:41:23.888Z,101402.91
2023-05-09T10:43:51.510Z,101378.47
2023-05-09T10:46:19.436Z,101333.81
2023-05-09T10:48:48.984Z,101351.59
2023-05-09T10:51:17.552Z,101395.84
2023-05-09T10:53:49.876Z,101395.09
2023-05-09T10:56:29.886Z,101384.56
2023-05-09T10:58:57.492Z,101380.88
2023-05-09T11:01:37.580Z,101367.31
2023-05-09T11:04:23.937Z,101345.25
2023-05-09T11:06:54.006Z,101361.13
2023-05-09T11:09:34.654Z,101359.88
2023-05-09T11:12:02.366Z,101376.13
2023-05-09T11:14:49.564Z,101372.44
2023-05-09T11:17:22.947Z,101360.41
2023-05-09T11:19:50.469Z,101364.13
2023-05-09T11:22:32.828Z,101359.03
2023-05-09T11:25:08.144Z,101359.41
2023-05-09T11:27:49.976Z,101351.09
2023-05-09T11:30:19.843Z,101345.94
2023-05-09T11:32:52.473Z,101361.78
2023-05-09T11:35:21.603Z,101332.88
2023-05-09T11:37:54.804Z,101348.97
2023-05-09T11:40:24.211Z,101340.19
2023-05-09T11:42:58.362Z,101343.59
2023-05-09T11:45:28.775Z,101331.16
2023-05-09T11:48:01.223Z,101337.38
2023-05-09T11:50:28.771Z,101335.78
2023-05-09T11:52:56.511Z,101313.84
2023-05-09T11:55:25.666Z,101327.78
2023-05-09T11:57:54.491Z,101251.06
2023-05-09T12:00:23.813Z,101318.19
2023-05-09T12:02:51.823Z,101312.94
2023-05-09T12:05:21.354Z,101317.34
2023-05-09T12:07:48.991Z,101319.91
2023-05-09T12:10:23.364Z,101299.84
2023-05-09T12:12:53.019Z,101308.00
2023-05-09T12:15:21.791Z,101300.16
2023-05-09T12:18:03.213Z,101295.94
2023-05-09T12:20:48.148Z,101284.56
2023-05-09T12:23:15.449Z,101278.28
2023-05-09T12:25:56.905Z,101280.19
2023-05-09T12:28:25.545Z,101305.72
2023-05-09T12:30:54.033Z,101277.72
2023-05-09T12:33:21.447Z,101290.09
2023-05-09T12:36:00.856Z,101276.06
2023-05-09T12:38:28.150Z,101266.34
2023-05-09T12:41:03.967Z,101274.22
2023-05-09T12:43:36.556Z,101258.19
2023-05-09T12:46:04.600Z,101258.00
2023-05-09T12:48:38.431Z,101272.88
2023-05-09T12:51:08.359Z,101262.94
2023-05-09T12:53:42.375Z,101258.16
2023-05-09T12:56:17.331Z,101262.28
2023-05-09T12:58:54.212Z,101258.50
2023-05-09T13:01:27.917Z,101254.75
2023-05-09T13:04:06.135Z,101251.16
2023-05-09T13:06:34.911Z,101249.03
2023-05-09T13:09:05.847Z,101252.38
2023-05-09T13:11:33.370Z,101243.53
2023-05-09T13:14:00.565Z,101240.00
2023-05-09T13:16:28.198Z,101234.72
2023-05-09T13:18:55.499Z,101231.97
2023-05-09T13:21:22.631Z,101231.09
2023-05-09T13:23:51.296Z,101232.81
2023-05-09T13:26:18.600Z,101222.22
2023-05-09T13:28:45.826Z,101227.38
2023-05-09T13:31:12.862Z,101212.34
2023-05-09T13:33:40.209Z,101228.00
2023-05-09T13:36:07.562Z,101222.81
2023-05-09T13:38:38.865Z,101218.31
2023-05-09T13:41:10.070Z,101196.28
2023-05-09T13:43:39.228Z,101212.94
2023-05-09T13:46:06.587Z,101192.63
2023-05-09T13:48:33.709Z,101212.81
2023-05-09T13:51:01.529Z,101211.78
2023-05-09T13:53:28.781Z,101157.19
2023-05-09T13:55:55.819Z,101209.25
2023-05-09T13:58:23.032Z,101203.09
2023-05-09T14:00:50.422Z,101190.75
2023-05-09T14:03:17.718Z,101199.56
2023-05-09T14:05:45.042Z,101203.00
2023-05-09T14:08:12.369Z,101200.34
2023-05-09T14:10:39.432Z,101193.25
2023-05-09T14:13:08.532Z,101196.56
2023-05-09T14:15:35.999Z,101200.03
2023-05-09T14:18:03.356Z,101193.91
2023-05-09T14:20:30.431Z,101185.94
2023-05-09T14:23:00.721Z,101188.72
2023-05-09T14:25:28.024Z,101162.22
2023-05-09T14:27:55.159Z,101045.78
2023-05-09T14:30:22.263Z,101187.63
2023-05-09T14:32:49.341Z,101165.63
2023-05-09T14:35:16.519Z,101171.06
2023-05-09T14:37:43.766Z,101174.69
2023-05-09T14:40:11.001Z,101170.41
2023-05-09T14:42:38.165Z,101173.09
2023-05-09T14:45:07.316Z,101157.38
2023-05-09T14:47:34.476Z,101152.19
2023-05-09T14:50:01.527Z,101159.41
2023-05-09T14:52:31.416Z,101145.47
2023-05-09T14:54:59.895Z,101160.56
2023-05-09T14:57:27.018Z,101156.22
2023-05-09T14:59:54.046Z,101111.25
2023-05-09T15:02:21.098Z,101154.53
2023-05-09T15:04:48.131Z,101154.53
2023-05-09T15:07:15.243Z,101159.84
2023-05-09T15:09:42.334Z,101154.69
2023-05-09T15:12:09.515Z,101156.44
2023-05-09T15:14:36.871Z,101158.22
2023-05-09T15:17:04.458Z,101102.00
2023-05-09T15:19:32.612Z,101148.75
2023-05-09T15:22:00.651Z,101136.44
2023-05-09T15:24:27.851Z,101142.63
2023-05-09T15:26:54.892Z,101135.56
2023-05-09T15:29:22.050Z,101139.91
2023-05-09T15:31:49.219Z,101129.38
2023-05-09T15:34:17.138Z,101125.78
2023-05-09T15:36:44.336Z,101124.06
2023-05-09T15:39:11.527Z,101131.94
2023-05-09T15:41:38.580Z,101119.59
2023-05-09T15:44:05.568Z,101129.31
2023-05-09T15:46:33.265Z,101117.84
2023-05-09T15:49:00.694Z,101129.31
2023-05-09T15:51:30.208Z,101116.09
2023-05-09T15:53:57.281Z,101117.97
2023-05-09T15:56:24.406Z,101108.25
2023-05-09T15:58:51.463Z,101123.97
2023-05-09T16:01:18.749Z,101120.44
2023-05-09T16:03:46.117Z,101116.84
2023-05-09T16:06:13.563Z,101106.22
2023-05-09T16:08:40.764Z,101102.66
2023-05-09T16:11:08.093Z,101121.91
2023-05-09T16:13:36.049Z,101114.78
2023-05-09T16:16:03.724Z,101105.13
2023-05-09T16:18:30.911Z,101104.28
2023-05-09T16:20:57.992Z,101070.72
2023-05-09T16:23:26.078Z,101110.38
2023-05-09T16:25:54.117Z,101110.34
2023-05-09T16:28:23.649Z,101091.75
2023-05-09T16:30:51.726Z,101101.44
2023-05-09T16:33:18.812Z,101097.84
2023-05-09T16:35:46.668Z,101092.53
2023-05-09T16:38:13.861Z,101098.63
2023-05-09T16:40:40.903Z,101083.56
2023-05-09T16:43:07.958Z,101101.16
2023-05-09T16:45:35.186Z,101103.63
2023-05-09T16:48:02.605Z,101096.53
2023-05-09T16:50:30.023Z,101095.53
2023-05-09T16:52:57.126Z,101100.59
2023-05-09T16:55:24.260Z,101087.31
2023-05-09T16:57:51.306Z,101094.25
2023-05-09T17:00:18.891Z,101096.75
2023-05-09T17:02:46.010Z,101105.34
2023-05-09T17:05:13.137Z,101104.25
2023-05-09T17:07:40.155Z,101094.31
2023-05-09T17:10:07.670Z,101102.91
2023-05-09T17:12:35.310Z,101095.72
2023-05-09T17:15:02.446Z,101082.34
2023-05-09T17:17:32.130Z,101062.63
2023-05-09T17:20:01.073Z,101112.78
2023-05-09T17:22:30.982Z,101076.47
2023-05-09T17:24:58.059Z,101103.66
2023-05-09T17:27:25.844Z,101102.66
2023-05-09T17:29:52.869Z,101112.97
2023-05-09T17:32:19.923Z,101120.66
2023-05-09T17:34:47.073Z,101116.09
2023-05-09T17:37:14.214Z,101101.03
2023-05-09T17:39:42.436Z,101113.13
2023-05-09T17:42:10.335Z,101103.25
2023-05-09T17:44:39.458Z,101114.44
2023-05-09T17:47:06.685Z,101114.25
2023-05-09T17:49:33.706Z,101119.25
2023-05-09T17:52:01.478Z,101113.84
2023-05-09T17:54:29.343Z,101119.69
2023-05-09T17:56:59.305Z,101095.56
2023-05-09T17:59:26.338Z,101118.53
2023-05-09T18:01:54.423Z,101125.41
2023-05-09T18:04:22.029Z,101112.31
2023-05-09T18:06:50.009Z,101102.44
2023-05-09T18:09:17.496Z,101121.72
2023-05-09T18:11:44.721Z,101112.97
2023-05-09T18:14:13.113Z,101108.34
2023-05-09T18:16:40.247Z,101083.34
2023-05-09T18:19:07.421Z,101094.63
2023-05-09T18:21:34.546Z,101110.50
2023-05-09T18:24:01.622Z,101120.69
2023-05-09T18:26:28.859Z,101111.81
2023-05-09T18:28:55.903Z,101107.13
2023-05-09T18:31:22.891Z,101112.25
2023-05-09T18:33:50.293Z,101114.78
2023-05-09T18:36:17.305Z,101113.78
2023-05-09T18:38:44.656Z,101098.69
2023-05-09T18:41:12.858Z,101119.69
2023-05-09T18:43:45.947Z,101123.09
2023-05-09T18:46:18.104Z,101108.94
2023-05-09T18:48:46.042Z,101119.38
2023-05-09T18:51:13.273Z,101108.69
2023-05-09T18:53:40.599Z,101121.06
2023-05-09T18:56:08.978Z,101098.81
2023-05-09T18:58:36.962Z,101107.44
2023-05-09T19:01:04.691Z,101116.19
2023-05-09T19:03:32.180Z,101121.63
2023-05-09T19:06:00.075Z,101069.41
2023-05-09T19:08:27.449Z,101122.31
2023-05-09T19:10:54.718Z,101119.66
2023-05-09T19:13:21.947Z,101130.13
2023-05-09T19:15:49.201Z,101101.94
2023-05-09T19:18:16.622Z,101128.28
2023-05-09T19:20:43.821Z,101106.31
2023-05-09T19:23:12.221Z,101123.88
2023-05-09T19:25:39.357Z,101123.78
2023-05-09T19:28:06.687Z,101118.38
2023-05-09T19:30:34.250Z,101121.94
2023-05-09T19:33:01.439Z,101120.94
2023-05-09T19:35:28.417Z,101121.84
2023-05-09T19:37:55.436Z,101115.81
2023-05-09T19:40:22.543Z,101125.34
2023-05-09T19:42:49.565Z,101115.03
2023-05-09T19:45:16.724Z,101107.03
2023-05-09T19:47:43.853Z,101115.59
2023-05-09T19:50:11.174Z,101107.72
2023-05-09T19:52:38.300Z,101115.66
2023-05-09T19:55:06.147Z,101107.84
2023-05-09T19:57:33.502Z,101111.34
2023-05-09T20:00:00.572Z,101102.53
2023-05-09T20:02:27.743Z,101112.28
2023-05-09T20:04:54.827Z,101076.84
2023-05-09T20:07:21.812Z,101107.56
2023-05-09T20:09:48.921Z,101095.09
2023-05-09T20:12:16.015Z,101109.09
2023-05-09T20:14:44.375Z,101096.03
2023-05-09T20:17:11.506Z,101100.59
2023-05-09T20:19:38.768Z,101102.34
2023-05-09T20:22:06.699Z,101104.13
2023-05-09T20:24:33.796Z,101103.25
2023-05-09T20:27:02.595Z,101080.28
2023-05-09T20:29:29.640Z,101108.22
2023-05-09T20:31:57.122Z,101082.66
2023-05-09T20:34:24.859Z,101086.22
2023-05-09T20:36:55.199Z,101094.19
2023-05-09T20:39:23.286Z,101092.28
2023-05-09T20:41:51.586Z,101092.03
2023-05-09T20:44:19.309Z,101096.13
2023-05-09T20:46:46.453Z,101102.94
2023-05-09T20:49:13.994Z,101094.19
2023-05-09T20:51:41.326Z,101101.41
2023-05-09T20:54:08.555Z,101092.72
2023-05-09T20:56:35.870Z,101097.41
2023-05-09T20:59:04.457Z,101099.34
2023-05-09T21:01:35.542Z,101102.94
2023-05-09T21:04:05.898Z,101075.88
2023-05-09T21:06:33.364Z,101097.06
2023-05-09T21:09:00.606Z,101092.81
2023-05-09T21:11:27.787Z,101104.13
2023-05-09T21:13:54.800Z,101096.31
2023-05-09T21:16:22.215Z,101090.22
2023-05-09T21:18:49.270Z,101097.06
2023-05-09T21:21:16.386Z,101100.59
2023-05-09T21:23:43.521Z,101098.72
2023-05-09T21:26:10.511Z,101092.59
2023-05-09T21:28:37.560Z,101098.63
2023-05-09T21:31:04.839Z,101045.59
2023-05-09T21:33:31.936Z,101082.81
2023-05-09T21:35:59.487Z,101093.31
2023-05-09T21:38:26.543Z,101085.47
2023-05-09T21:40:53.650Z,101093.09
2023-05-09T21:43:20.667Z,101062.28
2023-05-09T21:45:47.649Z,101086.25
2023-05-09T21:48:14.740Z,101064.00
2023-05-09T21:50:46.108Z,101087.00
2023-05-09T21:53:14.387Z,101069.22
2023-05-09T21:55:41.580Z,101066.53
2023-05-09T21:58:08.672Z,101081.78
2023-05-09T22:00:35.862Z,101081.78
2023-05-09T22:03:03.196Z,101070.28
2023-05-09T22:05:30.374Z,101083.50
2023-05-09T22:07:57.377Z,101067.69
2023-05-09T22:10:24.503Z,101079.84
2023-05-09T22:12:51.648Z,101076.00
2023-05-09T22:15:18.681Z,101078.66
2023-05-09T22:17:45.968Z,101033.59
2023-05-09T22:20:13.069Z,101074.25
2023-05-09T22:22:40.341Z,101064.63
2023-05-09T22:25:07.526Z,101055.69
2023-05-09T22:27:34.661Z,101058.06
2023-05-09T22:30:02.914Z,101072.19
2023-05-09T22:32:32.794Z,101084.06
2023-05-09T22:34:59.905Z,101083.13
2023-05-09T22:37:26.998Z,101065.63
2023-05-09T22:39:54.085Z,101069.44
2023-05-09T22:42:21.117Z,101074.78
2023-05-09T22:44:49.900Z,101067.00
2023-05-09T22:47:17.034Z,101068.47
2023-05-09T22:49:45.729Z,101067.56
2023-05-09T22:52:13.101Z,101062.50
2023-05-09T22:54:40.667Z,101060.88
2023-05-09T22:57:07.730Z,101036.31
2023-05-09T22:59:34.881Z,101063.63
2023-05-09T23:02:01.913Z,101060.88
2023-05-09T23:04:28.996Z,101065.28
2023-05-09T23:06:56.270Z,101047.50
2023-05-09T23:09:23.475Z,101044.91
2023-05-09T23:11:50.497Z,101067.94
2023-05-09T23:14:17.697Z,101057.31
2023-05-09T23:16:44.788Z,101064.53
2023-05-09T23:19:11.819Z,101059.31
2023-05-09T23:21:38.900Z,101045.13
2023-05-09T23:24:06.288Z,101051.59
2023-05-09T23:26:33.538Z,101065.34
2023-05-09T23:29:00.558Z,101001.69
2023-05-09T23:31:27.614Z,101060.88
2023-05-09T23:33:54.741Z,101053.09
2023-05-09T23:36:21.882Z,101060.88
2023-05-09T23:38:49.029Z,101058.06
2023-05-09T23:41:16.129Z,101061.53
2023-05-09T23:43:43.276Z,101061.56
2023-05-09T23:46:10.288Z,101043.94
2023-05-09T23:48:37.489Z,101062.31
2023-05-09T23:51:04.721Z,101055.91
2023-05-09T23:53:35.149Z,101072.25
2023-05-09T23:56:03.004Z,101053.09
2023-05-09T23:58:30.324Z,101008.06
